Time;durP1;ratioP1;P1;durP2;ratioP2;P2;SDS_P1;SDS_P2;PMS_P1;PMS_P2;Temp;Humidity;BMP_temperature;BMP_pressure;BME280_temperature;BME280_humidity;BME280_pressure;Samples;Min_cycle;Max_cycle;Signal;HPM_P1;HPM_P2
2021/12/20 00:00:00;;;;;;;21.00;9.45;;;;;;;;;;4983024;28;20860;-89
2021/12/20 00:02:27;;;;;;;19.60;8.98;;;;;;;;;;5009578;28;20041;-90
2021/12/20 00:04:55;;;;;;;20.17;9.82;;;;;;;;;;5002659;28;20050;-90
2021/12/20 00:07:23;;;;;;;17.60;8.25;;;;;;;;;;4978863;28;20060;-89
2021/12/20 00:09:54;;;;;;;20.20;9.43;;;;;;;;;;4973925;28;20062;-90
2021/12/20 00:12:22;;;;;;;17.85;8.88;;;;;;;;;;4988389;28;20042;-90
2021/12/20 00:14:49;;;;;;;19.42;9.30;;;;;;;;;;5006193;28;20457;-90
2021/12/20 00:17:16;;;;;;;22.58;8.98;;;;;;;;;;5004111;28;20449;-89
2021/12/20 00:19:43;;;;;;;19.60;9.30;;;;;;;;;;5005214;28;20046;-90
2021/12/20 00:22:10;;;;;;;23.10;8.90;;;;;;;;;;4991266;28;20414;-90
2021/12/20 00:24:38;;;;;;;23.02;9.52;;;;;;;;;;4980688;28;20079;-90
2021/12/20 00:27:10;;;;;;;19.42;8.93;;;;;;;;;;4979080;28;20046;-90
2021/12/20 00:29:37;;;;;;;18.73;8.77;;;;;;;;;;4998164;28;20059;-90
2021/12/20 00:32:05;;;;;;;22.02;9.82;;;;;;;;;;5006016;28;20054;-91
2021/12/20 00:34:36;;;;;;;20.48;9.20;;;;;;;;;;5010812;28;20133;-90
2021/12/20 00:37:05;;;;;;;17.75;8.77;;;;;;;;;;5021779;28;20042;-90
2021/12/20 00:42:18;;;;;;;21.85;9.18;;;;;;;;;;5023806;28;20052;-90
2021/12/20 00:44:45;;;;;;;18.48;9.25;;;;;;;;;;5010665;28;20415;-90
2021/12/20 00:47:12;;;;;;;21.20;9.35;;;;;;;;;;5012615;28;20084;-89
2021/12/20 00:49:40;;;;;;;23.80;9.73;;;;;;;;;;5029607;28;20557;-90
2021/12/20 00:52:08;;;;;;;20.67;10.23;;;;;;;;;;4995895;28;20125;-90
2021/12/20 00:54:35;;;;;;;22.17;9.95;;;;;;;;;;5008696;28;20188;-90
2021/12/20 00:57:02;;;;;;;20.67;9.68;;;;;;;;;;5019833;28;20049;-90
2021/12/20 00:59:33;;;;;;;20.02;9.48;;;;;;;;;;5010989;28;20053;-90
2021/12/20 01:02:03;;;;;;;20.88;9.77;;;;;;;;;;4986830;28;20041;-90
2021/12/20 01:04:30;;;;;;;18.92;10.27;;;;;;;;;;4989771;28;20049;-90
2021/12/20 01:06:58;;;;;;;18.20;8.65;;;;;;;;;;4977301;28;20057;-90
2021/12/20 01:09:24;;;;;;;19.15;8.73;;;;;;;;;;5027811;28;20053;-90
2021/12/20 01:11:54;;;;;;;19.63;9.45;;;;;;;;;;5003656;28;20049;-90
2021/12/20 01:14:22;;;;;;;20.50;9.45;;;;;;;;;;4995438;28;20125;-90
2021/12/20 01:16:54;;;;;;;24.00;11.98;;;;;;;;;;5009814;28;20413;-90
2021/12/20 01:19:22;;;;;;;23.88;11.25;;;;;;;;;;5025143;28;20049;-90
2021/12/20 01:21:49;;;;;;;22.85;9.82;;;;;;;;;;5005783;28;20054;-90
2021/12/20 01:24:16;;;;;;;23.70;11.95;;;;;;;;;;5002527;28;20118;-90
2021/12/20 01:26:43;;;;;;;24.33;10.98;;;;;;;;;;4999267;28;20115;-90
2021/12/20 01:29:13;;;;;;;26.42;11.30;;;;;;;;;;4991821;28;20140;-91
2021/12/20 01:31:40;;;;;;;28.00;10.85;;;;;;;;;;4988369;28;20073;-91
2021/12/20 01:34:13;;;;;;;23.33;11.38;;;;;;;;;;5003237;28;20076;-91
2021/12/20 01:36:41;;;;;;;23.48;10.80;;;;;;;;;;4989836;28;20046;-91
2021/12/20 01:39:10;;;;;;;24.00;10.13;;;;;;;;;;5000477;28;20046;-91
2021/12/20 01:41:41;;;;;;;24.85;10.43;;;;;;;;;;4993410;28;20050;-90
2021/12/20 01:44:12;;;;;;;22.65;10.60;;;;;;;;;;5010535;28;20046;-90
2021/12/20 01:46:40;;;;;;;24.80;10.55;;;;;;;;;;4974721;28;20038;-90
2021/12/20 01:49:15;;;;;;;21.83;9.73;;;;;;;;;;5002313;28;20046;-90
2021/12/20 01:51:51;;;;;;;23.15;10.45;;;;;;;;;;4987250;28;20058;-90
2021/12/20 01:54:19;;;;;;;25.15;10.70;;;;;;;;;;5007342;28;20761;-90
2021/12/20 01:56:47;;;;;;;17.52;8.32;;;;;;;;;;5011155;28;20588;-90
2021/12/20 01:59:14;;;;;;;21.90;10.02;;;;;;;;;;4990030;28;20099;-90
2021/12/20 02:01:44;;;;;;;21.05;9.10;;;;;;;;;;4971021;28;20056;-90
2021/12/20 02:04:14;;;;;;;24.02;10.18;;;;;;;;;;4979120;28;20049;-90
2021/12/20 02:06:47;;;;;;;25.15;10.68;;;;;;;;;;4969762;28;20053;-90
2021/12/20 02:09:16;;;;;;;21.50;11.05;;;;;;;;;;4984728;28;20054;-90
2021/12/20 02:11:47;;;;;;;22.23;9.95;;;;;;;;;;4982078;28;20214;-90
2021/12/20 02:14:15;;;;;;;23.13;11.38;;;;;;;;;;5000545;28;20046;-90
2021/12/20 02:16:44;;;;;;;21.65;10.88;;;;;;;;;;4982412;28;20125;-91
2021/12/20 02:19:16;;;;;;;27.48;10.18;;;;;;;;;;4993554;28;20552;-91
2021/12/20 02:21:48;;;;;;;24.60;11.75;;;;;;;;;;5005301;28;20050;-91
2021/12/20 02:24:17;;;;;;;26.77;12.68;;;;;;;;;;4987072;28;20112;-91
2021/12/20 02:26:45;;;;;;;30.65;13.13;;;;;;;;;;5003052;28;20049;-91
2021/12/20 02:29:14;;;;;;;29.00;12.27;;;;;;;;;;5005604;28;20164;-91
2021/12/20 02:47:15;;;;;;;20.75;9.75;;;;;;;;;;5507421;22;20724;-90
2021/12/20 02:49:43;;;;;;;22.05;10.52;;;;;;;;;;5033397;28;20719;-90
2021/12/20 02:52:11;;;;;;;21.90;10.45;;;;;;;;;;4998462;28;20132;-90
2021/12/20 02:54:39;;;;;;;22.02;10.63;;;;;;;;;;5012777;28;20073;-90
2021/12/20 02:57:07;;;;;;;27.90;11.23;;;;;;;;;;5032358;28;20070;-90
2021/12/20 02:59:34;;;;;;;29.35;11.88;;;;;;;;;;5017296;28;20052;-91
2021/12/20 03:02:11;;;;;;;22.73;10.20;;;;;;;;;;5000837;28;20045;-90
2021/12/20 03:04:41;;;;;;;25.98;11.00;;;;;;;;;;5016440;28;20462;-90
2021/12/20 03:07:12;;;;;;;22.83;11.13;;;;;;;;;;5018511;28;20095;-90
2021/12/20 03:09:48;;;;;;;28.60;11.68;;;;;;;;;;5015839;28;20088;-90
2021/12/20 03:12:15;;;;;;;30.60;13.27;;;;;;;;;;5016946;28;20045;-90
2021/12/20 03:14:44;;;;;;;30.60;13.20;;;;;;;;;;4999854;28;20041;-90
2021/12/20 03:17:15;;;;;;;29.00;11.07;;;;;;;;;;5015554;28;20103;-90
2021/12/20 03:19:43;;;;;;;27.75;13.30;;;;;;;;;;5029795;28;20092;-91
2021/12/20 03:22:11;;;;;;;26.05;11.77;;;;;;;;;;5002666;28;20095;-90
2021/12/20 03:24:39;;;;;;;28.10;11.60;;;;;;;;;;5016793;28;20493;-90
2021/12/20 03:27:08;;;;;;;34.83;13.73;;;;;;;;;;5034580;28;20532;-90
2021/12/20 03:29:35;;;;;;;28.27;13.20;;;;;;;;;;4997102;28;20050;-91
2021/12/20 03:32:03;;;;;;;28.05;12.95;;;;;;;;;;4999730;28;20045;-91
2021/12/20 03:34:35;;;;;;;29.85;13.02;;;;;;;;;;5030689;28;20046;-90
2021/12/20 03:37:03;;;;;;;26.85;12.43;;;;;;;;;;5012424;28;20448;-90
2021/12/20 03:39:30;;;;;;;28.30;11.75;;;;;;;;;;5035669;28;20045;-90
2021/12/20 03:41:58;;;;;;;27.63;11.98;;;;;;;;;;5016703;28;20064;-90
2021/12/20 03:44:25;;;;;;;27.00;11.95;;;;;;;;;;5015577;28;20056;-90
2021/12/20 03:46:53;;;;;;;24.35;10.60;;;;;;;;;;4994965;28;20082;-90
2021/12/20 03:49:20;;;;;;;34.33;13.15;;;;;;;;;;4992499;28;20059;-90
2021/12/20 03:51:49;;;;;;;26.15;10.63;;;;;;;;;;4993500;28;20144;-89
2021/12/20 03:54:16;;;;;;;29.00;11.98;;;;;;;;;;4994890;28;20554;-90
2021/12/20 03:56:44;;;;;;;27.48;11.18;;;;;;;;;;4996530;28;20077;-89
2021/12/20 03:59:10;;;;;;;28.75;13.00;;;;;;;;;;4999757;28;20082;-89
2021/12/20 04:01:38;;;;;;;26.48;11.07;;;;;;;;;;4976503;28;20113;-90
2021/12/20 04:04:06;;;;;;;27.40;10.98;;;;;;;;;;4990463;28;20630;-90
2021/12/20 04:06:35;;;;;;;28.27;11.18;;;;;;;;;;4992283;28;20062;-90
2021/12/20 04:09:05;;;;;;;28.08;11.32;;;;;;;;;;4994852;28;20061;-90
2021/12/20 04:11:33;;;;;;;22.75;10.25;;;;;;;;;;4990202;28;20125;-90
2021/12/20 04:14:01;;;;;;;26.00;11.65;;;;;;;;;;4988385;28;20132;-90
2021/12/20 04:16:29;;;;;;;25.73;11.93;;;;;;;;;;4994702;28;20050;-90
2021/12/20 04:18:56;;;;;;;25.70;11.23;;;;;;;;;;4994757;28;20082;-90
2021/12/20 04:21:23;;;;;;;29.45;12.23;;;;;;;;;;4994023;28;20487;-90
2021/12/20 04:23:51;;;;;;;25.90;11.88;;;;;;;;;;4992862;28;20510;-90
2021/12/20 04:26:20;;;;;;;22.25;11.05;;;;;;;;;;4990722;28;20141;-90
2021/12/20 04:28:47;;;;;;;29.25;13.55;;;;;;;;;;4992790;28;20646;-90
2021/12/20 04:31:15;;;;;;;31.23;11.52;;;;;;;;;;4992618;28;20037;-90
2021/12/20 04:33:42;;;;;;;29.08;11.20;;;;;;;;;;4987003;28;20132;-90
2021/12/20 04:36:10;;;;;;;31.35;12.60;;;;;;;;;;4995411;28;20133;-90
2021/12/20 04:38:38;;;;;;;28.50;12.65;;;;;;;;;;4992004;28;20137;-90
2021/12/20 04:41:07;;;;;;;31.02;12.65;;;;;;;;;;4991090;28;20050;-90
2021/12/20 04:43:39;;;;;;;32.40;13.57;;;;;;;;;;4992449;28;20073;-90
2021/12/20 04:46:06;;;;;;;27.67;11.60;;;;;;;;;;4988921;28;20061;-90
2021/12/20 04:48:34;;;;;;;33.17;14.57;;;;;;;;;;4975323;28;20074;-90
2021/12/20 04:51:01;;;;;;;27.00;11.75;;;;;;;;;;4992273;28;20622;-90
2021/12/20 04:53:28;;;;;;;29.48;13.13;;;;;;;;;;4995439;28;20696;-90
2021/12/20 04:55:58;;;;;;;32.47;13.55;;;;;;;;;;4976488;28;20054;-91
2021/12/20 04:58:25;;;;;;;30.75;11.57;;;;;;;;;;4988910;28;20070;-90
2021/12/20 05:00:55;;;;;;;28.52;12.38;;;;;;;;;;4960241;28;20052;-91
2021/12/20 05:03:22;;;;;;;28.15;12.52;;;;;;;;;;4991477;28;20396;-90
2021/12/20 05:05:49;;;;;;;32.72;13.40;;;;;;;;;;4991046;28;20057;-89
2021/12/20 05:08:16;;;;;;;29.15;13.00;;;;;;;;;;4990904;28;20101;-88
2021/12/20 05:10:47;;;;;;;30.05;13.18;;;;;;;;;;4989644;28;20105;-89
2021/12/20 05:13:15;;;;;;;32.83;13.07;;;;;;;;;;4995486;28;20711;-89
2021/12/20 05:15:43;;;;;;;29.75;12.02;;;;;;;;;;4993074;28;20050;-89
2021/12/20 05:18:13;;;;;;;29.58;12.13;;;;;;;;;;4975775;28;20042;-89
2021/12/20 05:20:40;;;;;;;27.80;11.93;;;;;;;;;;4991033;28;20089;-88
2021/12/20 05:23:08;;;;;;;27.70;12.20;;;;;;;;;;4993024;28;20050;-89
2021/12/20 05:25:36;;;;;;;30.90;11.65;;;;;;;;;;4992874;28;20473;-90
2021/12/20 05:28:04;;;;;;;28.65;10.98;;;;;;;;;;4990318;28;20050;-89
2021/12/20 05:30:32;;;;;;;30.23;11.77;;;;;;;;;;4991695;28;20042;-89
2021/12/20 05:33:04;;;;;;;27.80;11.40;;;;;;;;;;4989535;28;20082;-88
2021/12/20 05:35:37;;;;;;;24.67;11.35;;;;;;;;;;4985987;28;20051;-88
2021/12/20 05:38:07;;;;;;;28.63;12.05;;;;;;;;;;4986427;28;20530;-89
2021/12/20 05:40:35;;;;;;;23.42;12.25;;;;;;;;;;4989526;28;20109;-89
2021/12/20 05:43:05;;;;;;;28.00;11.90;;;;;;;;;;4989386;28;20046;-89
2021/12/20 05:45:35;;;;;;;28.73;11.40;;;;;;;;;;4990556;28;20077;-89
2021/12/20 05:48:04;;;;;;;30.75;11.45;;;;;;;;;;4977876;28;20116;-89
2021/12/20 05:50:36;;;;;;;26.50;11.48;;;;;;;;;;4993897;28;20080;-90
2021/12/20 05:53:04;;;;;;;24.15;10.32;;;;;;;;;;4993734;28;20050;-90
2021/12/20 05:55:31;;;;;;;25.95;12.10;;;;;;;;;;4991397;28;20042;-90
2021/12/20 05:57:58;;;;;;;27.27;10.88;;;;;;;;;;4991494;28;20057;-90
2021/12/20 06:00:26;;;;;;;21.55;10.02;;;;;;;;;;4988565;28;20042;-90
2021/12/20 06:02:54;;;;;;;25.58;10.05;;;;;;;;;;4989540;28;20060;-90
2021/12/20 06:05:23;;;;;;;22.75;10.65;;;;;;;;;;4991477;28;20467;-90
2021/12/20 06:07:53;;;;;;;26.83;10.25;;;;;;;;;;4989774;28;20046;-90
2021/12/20 06:10:21;;;;;;;23.83;10.55;;;;;;;;;;4990920;28;20053;-90
2021/12/20 06:12:48;;;;;;;25.88;11.15;;;;;;;;;;4992986;28;20101;-90
2021/12/20 06:15:16;;;;;;;27.45;11.63;;;;;;;;;;4999335;28;20058;-90
2021/12/20 06:17:45;;;;;;;25.42;11.23;;;;;;;;;;4990816;28;20046;-90
2021/12/20 06:20:14;;;;;;;25.58;11.02;;;;;;;;;;4988266;28;20050;-90
2021/12/20 06:22:42;;;;;;;26.98;11.55;;;;;;;;;;4990819;28;20365;-90
2021/12/20 06:25:12;;;;;;;20.10;9.82;;;;;;;;;;4960632;28;20053;-90
2021/12/20 06:27:41;;;;;;;28.73;12.60;;;;;;;;;;4992556;28;20077;-90
2021/12/20 06:30:11;;;;;;;28.52;11.35;;;;;;;;;;4975847;28;20104;-89
2021/12/20 06:32:38;;;;;;;29.42;12.68;;;;;;;;;;4992088;28;20050;-90
2021/12/20 06:35:07;;;;;;;28.25;12.77;;;;;;;;;;4990644;28;20051;-90
2021/12/20 06:37:34;;;;;;;28.45;12.35;;;;;;;;;;4967729;28;20073;-90
2021/12/20 06:40:02;;;;;;;29.50;13.07;;;;;;;;;;4995298;28;20081;-90
2021/12/20 06:42:37;;;;;;;28.45;12.95;;;;;;;;;;4993771;28;20056;-89
2021/12/20 06:45:06;;;;;;;25.05;11.82;;;;;;;;;;4991886;28;20491;-90
2021/12/20 06:47:33;;;;;;;30.05;12.00;;;;;;;;;;4991713;28;20082;-90
2021/12/20 06:50:00;;;;;;;28.70;12.63;;;;;;;;;;5011766;28;20148;-90
2021/12/20 06:52:28;;;;;;;30.92;13.80;;;;;;;;;;4988893;28;20042;-90
2021/12/20 06:54:55;;;;;;;22.58;10.55;;;;;;;;;;5011509;28;20058;-90
2021/12/20 06:57:22;;;;;;;34.28;12.88;;;;;;;;;;4993033;28;20081;-90
2021/12/20 06:59:53;;;;;;;25.85;11.68;;;;;;;;;;4991682;28;20052;-90
2021/12/20 07:02:22;;;;;;;30.95;14.07;;;;;;;;;;4982539;28;20050;-90
2021/12/20 07:04:49;;;;;;;32.08;13.43;;;;;;;;;;4995176;28;20120;-90
2021/12/20 07:07:16;;;;;;;29.65;11.98;;;;;;;;;;4992251;28;20096;-91
2021/12/20 07:09:44;;;;;;;29.67;13.05;;;;;;;;;;4993855;28;20046;-90
2021/12/20 07:12:12;;;;;;;27.23;12.60;;;;;;;;;;4995150;28;20081;-89
2021/12/20 07:14:41;;;;;;;29.48;12.32;;;;;;;;;;4995191;28;20041;-89
2021/12/20 07:17:11;;;;;;;26.60;11.85;;;;;;;;;;4998802;28;20890;-90
2021/12/20 07:19:38;;;;;;;30.10;12.98;;;;;;;;;;4993595;28;20073;-90
2021/12/20 07:22:05;;;;;;;30.52;13.32;;;;;;;;;;5013888;28;20104;-90
2021/12/20 07:24:32;;;;;;;31.17;14.23;;;;;;;;;;5013301;28;20417;-90
2021/12/20 07:26:59;;;;;;;27.27;12.77;;;;;;;;;;5009516;28;20413;-90
2021/12/20 07:29:27;;;;;;;31.58;13.35;;;;;;;;;;4996711;28;20053;-90
2021/12/20 07:31:54;;;;;;;25.15;11.93;;;;;;;;;;4998980;28;20045;-90
2021/12/20 07:34:24;;;;;;;29.08;13.02;;;;;;;;;;5013676;28;20069;-90
2021/12/20 07:36:53;;;;;;;29.52;12.50;;;;;;;;;;5015511;28;20049;-91
2021/12/20 07:39:20;;;;;;;28.13;13.48;;;;;;;;;;5000837;28;20096;-90
2021/12/20 07:41:48;;;;;;;30.90;12.77;;;;;;;;;;5002839;28;20607;-90
2021/12/20 07:44:17;;;;;;;33.25;14.73;;;;;;;;;;5014930;28;20490;-90
2021/12/20 07:46:44;;;;;;;32.00;12.80;;;;;;;;;;5013968;28;20105;-90
2021/12/20 07:49:12;;;;;;;27.15;13.05;;;;;;;;;;4999574;28;20654;-90
2021/12/20 07:51:44;;;;;;;24.80;12.90;;;;;;;;;;4983757;28;20066;-89
2021/12/20 07:54:12;;;;;;;28.92;11.98;;;;;;;;;;4971208;28;20042;-89
2021/12/20 07:56:39;;;;;;;31.15;13.68;;;;;;;;;;5013553;28;20149;-89
2021/12/20 07:59:07;;;;;;;28.02;13.88;;;;;;;;;;5013860;28;20671;-89
2021/12/20 08:01:35;;;;;;;25.60;11.63;;;;;;;;;;4997058;28;20437;-90
2021/12/20 08:04:03;;;;;;;27.83;11.98;;;;;;;;;;5015706;28;20054;-89
2021/12/20 08:06:30;;;;;;;28.48;11.65;;;;;;;;;;5017123;28;20049;-89
2021/12/20 08:09:01;;;;;;;22.30;10.70;;;;;;;;;;4997433;28;20054;-90
2021/12/20 08:11:29;;;;;;;25.13;11.60;;;;;;;;;;5011713;28;20108;-89
2021/12/20 08:13:56;;;;;;;26.42;11.93;;;;;;;;;;5001153;28;20572;-89
2021/12/20 08:16:23;;;;;;;37.85;14.45;;;;;;;;;;4980428;28;20042;-90
2021/12/20 08:18:51;;;;;;;27.75;12.98;;;;;;;;;;4981616;28;20548;-89
2021/12/20 08:21:18;;;;;;;55.03;24.77;;;;;;;;;;5014748;28;20042;-90
2021/12/20 08:23:45;;;;;;;37.35;17.23;;;;;;;;;;5009474;28;20100;-89
2021/12/20 08:26:18;;;;;;;50.25;16.45;;;;;;;;;;4998574;28;20064;-90
2021/12/20 08:28:45;;;;;;;30.98;13.13;;;;;;;;;;4981604;28;20056;-89
2021/12/20 08:31:13;;;;;;;28.65;13.70;;;;;;;;;;4982672;28;20107;-89
2021/12/20 08:33:41;;;;;;;25.48;12.07;;;;;;;;;;4991353;28;20104;-89
2021/12/20 08:36:12;;;;;;;27.95;11.38;;;;;;;;;;4980439;28;20116;-89
2021/12/20 08:38:40;;;;;;;27.20;13.45;;;;;;;;;;5014390;28;20045;-90
2021/12/20 08:41:08;;;;;;;28.33;11.70;;;;;;;;;;5015375;28;20053;-90
2021/12/20 08:43:37;;;;;;;27.42;12.52;;;;;;;;;;5009247;28;20790;-89
2021/12/20 08:46:06;;;;;;;24.17;11.63;;;;;;;;;;4997157;28;20045;-89
2021/12/20 08:48:33;;;;;;;26.30;12.57;;;;;;;;;;4979943;28;20058;-89
2021/12/20 08:51:02;;;;;;;29.02;12.23;;;;;;;;;;4996689;28;20078;-89
2021/12/20 08:53:29;;;;;;;36.08;15.20;;;;;;;;;;5013918;28;20701;-90
2021/12/20 08:55:59;;;;;;;25.80;12.20;;;;;;;;;;5012956;28;20078;-90
2021/12/20 08:58:26;;;;;;;28.60;12.27;;;;;;;;;;4996073;28;20046;-90
2021/12/20 09:00:57;;;;;;;27.85;12.15;;;;;;;;;;5008137;28;20502;-89
2021/12/20 09:03:25;;;;;;;25.77;13.40;;;;;;;;;;4991883;28;20081;-90
2021/12/20 09:05:53;;;;;;;25.88;12.20;;;;;;;;;;5012630;28;20886;-89
2021/12/20 09:08:21;;;;;;;23.50;12.07;;;;;;;;;;4995795;28;20084;-89
2021/12/20 09:10:49;;;;;;;26.55;11.45;;;;;;;;;;4995340;28;20079;-90
2021/12/20 09:13:18;;;;;;;29.55;12.60;;;;;;;;;;4996042;28;20068;-89
2021/12/20 09:15:45;;;;;;;28.25;12.00;;;;;;;;;;4993697;28;20194;-89
2021/12/20 09:18:17;;;;;;;27.20;13.02;;;;;;;;;;4980064;28;20088;-89
2021/12/20 09:20:45;;;;;;;31.65;12.77;;;;;;;;;;4996487;28;20125;-90
2021/12/20 09:23:13;;;;;;;25.88;11.85;;;;;;;;;;4989097;28;20046;-90
2021/12/20 09:25:43;;;;;;;32.95;12.32;;;;;;;;;;5006512;28;20074;-89
2021/12/20 09:28:12;;;;;;;26.10;12.82;;;;;;;;;;5013268;28;20053;-90
2021/12/20 09:30:42;;;;;;;32.80;12.77;;;;;;;;;;5017296;28;20125;-89
2021/12/20 09:33:10;;;;;;;25.90;12.13;;;;;;;;;;5011533;28;20119;-89
2021/12/20 09:35:39;;;;;;;26.85;12.63;;;;;;;;;;5012871;28;20096;-90
2021/12/20 09:38:09;;;;;;;27.17;12.23;;;;;;;;;;5009728;28;20477;-89
2021/12/20 09:40:40;;;;;;;22.70;11.02;;;;;;;;;;4994026;28;20045;-89
2021/12/20 09:43:09;;;;;;;24.00;10.85;;;;;;;;;;4980604;28;20131;-89
2021/12/20 09:45:38;;;;;;;29.35;12.32;;;;;;;;;;5018205;28;20148;-89
2021/12/20 09:48:06;;;;;;;25.63;11.02;;;;;;;;;;5013902;28;20049;-89
2021/12/20 09:50:34;;;;;;;26.42;13.05;;;;;;;;;;4978852;28;20999;-90
2021/12/20 09:53:07;;;;;;;25.58;12.13;;;;;;;;;;4983345;28;20077;-90
2021/12/20 09:55:35;;;;;;;31.23;12.35;;;;;;;;;;5009164;28;20108;-89
2021/12/20 09:58:04;;;;;;;23.77;12.23;;;;;;;;;;4981069;28;20081;-90
2021/12/20 10:00:32;;;;;;;24.42;12.35;;;;;;;;;;4997193;28;20081;-90
2021/12/20 10:03:00;;;;;;;24.30;11.55;;;;;;;;;;5008270;28;20045;-89
2021/12/20 10:05:28;;;;;;;35.13;12.18;;;;;;;;;;4993620;28;20126;-89
2021/12/20 10:07:56;;;;;;;28.65;13.80;;;;;;;;;;4979331;28;20046;-89
2021/12/20 10:10:44;;;;;;;49.97;13.98;;;;;;;;;;5014384;28;20064;-89
2021/12/20 10:13:20;;;;;;;25.08;10.85;;;;;;;;;;5011094;28;20069;-89
2021/12/20 10:15:48;;;;;;;33.00;13.57;;;;;;;;;;4963072;28;20402;-89
2021/12/20 10:18:16;;;;;;;27.77;13.50;;;;;;;;;;5012521;28;20050;-89
2021/12/20 10:20:44;;;;;;;37.88;14.05;;;;;;;;;;4994573;28;20054;-89
2021/12/20 10:23:14;;;;;;;29.20;13.07;;;;;;;;;;5012363;28;20073;-90
2021/12/20 10:25:45;;;;;;;25.85;12.57;;;;;;;;;;4981220;28;20483;-89
2021/12/20 10:28:15;;;;;;;30.15;13.00;;;;;;;;;;4978922;28;20046;-89
2021/12/20 10:30:44;;;;;;;26.42;12.02;;;;;;;;;;4995932;28;20049;-89
2021/12/20 10:33:13;;;;;;;21.50;11.10;;;;;;;;;;4993657;28;20116;-90
2021/12/20 10:35:44;;;;;;;26.02;12.18;;;;;;;;;;5009592;28;20494;-90
2021/12/20 10:38:27;;;;;;;23.98;10.95;;;;;;;;;;4991595;28;20129;-89
2021/12/20 10:40:59;;;;;;;28.10;11.65;;;;;;;;;;4994565;28;20046;-89
2021/12/20 10:43:29;;;;;;;24.80;13.63;;;;;;;;;;5003123;28;20077;-89
2021/12/20 10:46:13;;;;;;;21.85;11.27;;;;;;;;;;5020576;28;20050;-90
2021/12/20 10:48:40;;;;;;;23.55;11.07;;;;;;;;;;5020339;28;20664;-89
2021/12/20 10:51:18;;;;;;;22.80;10.10;;;;;;;;;;5015751;28;20050;-90
2021/12/20 10:53:47;;;;;;;20.58;11.13;;;;;;;;;;4998482;28;20053;-88
2021/12/20 10:56:19;;;;;;;22.35;10.65;;;;;;;;;;5000948;28;20142;-89
2021/12/20 10:58:47;;;;;;;20.65;10.40;;;;;;;;;;5014401;28;20058;-90
2021/12/20 11:01:22;;;;;;;21.55;9.50;;;;;;;;;;4998582;28;20057;-89
2021/12/20 11:04:01;;;;;;;19.73;10.00;;;;;;;;;;4994800;28;20132;-89
2021/12/20 11:06:44;;;;;;;22.15;9.75;;;;;;;;;;4999583;28;20042;-89
2021/12/20 11:09:14;;;;;;;20.23;9.85;;;;;;;;;;4998952;28;20461;-87
2021/12/20 11:11:49;;;;;;;21.17;8.88;;;;;;;;;;5001980;28;20057;-90
2021/12/20 11:14:17;;;;;;;25.73;10.45;;;;;;;;;;4992277;28;20441;-90
2021/12/20 11:16:46;;;;;;;24.05;11.07;;;;;;;;;;5014948;28;20053;-90
2021/12/20 11:19:23;;;;;;;20.05;9.82;;;;;;;;;;4997402;28;20144;-90
2021/12/20 11:22:06;;;;;;;18.27;9.55;;;;;;;;;;5008869;28;20050;-90
2021/12/20 11:24:36;;;;;;;19.65;9.77;;;;;;;;;;5014224;28;20061;-89
2021/12/20 11:27:08;;;;;;;22.00;10.32;;;;;;;;;;4995715;28;20049;-89
2021/12/20 11:29:36;;;;;;;23.35;10.55;;;;;;;;;;4996805;28;20041;-89
2021/12/20 11:32:05;;;;;;;21.38;8.82;;;;;;;;;;5015057;28;20085;-89
2021/12/20 11:34:33;;;;;;;24.58;11.48;;;;;;;;;;5016200;28;20103;-89
2021/12/20 11:37:02;;;;;;;21.02;11.10;;;;;;;;;;5012029;28;20419;-89
2021/12/20 11:39:31;;;;;;;23.10;11.55;;;;;;;;;;5012359;28;20556;-89
2021/12/20 11:41:58;;;;;;;18.75;9.13;;;;;;;;;;4994301;28;20082;-89
2021/12/20 11:44:31;;;;;;;20.92;9.30;;;;;;;;;;4994629;28;20046;-89
2021/12/20 11:47:06;;;;;;;16.58;8.15;;;;;;;;;;4993956;28;20058;-89
2021/12/20 11:49:34;;;;;;;13.73;6.97;;;;;;;;;;5012225;28;20079;-89
2021/12/20 11:52:07;;;;;;;14.95;7.28;;;;;;;;;;4991996;28;20152;-89
2021/12/20 11:54:41;;;;;;;17.10;8.30;;;;;;;;;;4987410;28;20052;-90
2021/12/20 11:57:11;;;;;;;15.00;7.55;;;;;;;;;;5015487;28;20209;-90
2021/12/20 11:59:56;;;;;;;15.73;8.02;;;;;;;;;;5008324;28;20073;-89
2021/12/20 12:02:26;;;;;;;15.45;7.15;;;;;;;;;;5014961;28;20454;-89
2021/12/20 12:04:58;;;;;;;16.75;7.40;;;;;;;;;;5016217;28;20418;-89
2021/12/20 12:07:27;;;;;;;14.85;6.95;;;;;;;;;;5011429;28;20506;-89
2021/12/20 12:09:59;;;;;;;18.08;7.60;;;;;;;;;;4999836;28;20410;-89
2021/12/20 12:12:28;;;;;;;14.38;7.15;;;;;;;;;;5015203;28;20049;-90
2021/12/20 12:15:08;;;;;;;13.57;7.68;;;;;;;;;;5005780;28;20117;-90
2021/12/20 12:17:58;;;;;;;13.43;7.07;;;;;;;;;;4990958;28;20042;-90
2021/12/20 12:20:49;;;;;;;15.68;8.20;;;;;;;;;;5000343;28;20064;-89
2021/12/20 12:23:20;;;;;;;15.85;7.85;;;;;;;;;;5012268;28;20054;-90
2021/12/20 12:25:49;;;;;;;16.92;8.30;;;;;;;;;;5013918;28;20050;-90
2021/12/20 12:28:19;;;;;;;19.42;7.97;;;;;;;;;;5013143;28;20050;-90
2021/12/20 12:31:01;;;;;;;20.65;8.07;;;;;;;;;;5013577;28;20108;-90
2021/12/20 12:33:34;;;;;;;18.13;8.32;;;;;;;;;;5009143;28;20100;-90
2021/12/20 12:36:04;;;;;;;24.02;9.07;;;;;;;;;;4987232;28;20129;-90
2021/12/20 12:38:36;;;;;;;15.32;7.75;;;;;;;;;;4991900;28;20049;-90
2021/12/20 12:41:15;;;;;;;21.45;9.38;;;;;;;;;;5013363;28;20045;-89
2021/12/20 12:44:09;;;;;;;22.33;8.65;;;;;;;;;;5009484;28;20549;-89
2021/12/20 12:46:51;;;;;;;19.95;9.35;;;;;;;;;;5001123;28;20101;-89
2021/12/20 12:49:38;;;;;;;16.17;9.15;;;;;;;;;;5019658;28;20787;-89
2021/12/20 12:52:08;;;;;;;14.55;8.18;;;;;;;;;;4995250;28;20062;-89
2021/12/20 12:54:41;;;;;;;17.00;7.40;;;;;;;;;;5012715;28;20791;-89
2021/12/20 12:57:29;;;;;;;15.50;7.15;;;;;;;;;;4995607;28;20109;-89
2021/12/20 13:00:09;;;;;;;15.75;7.63;;;;;;;;;;5009900;28;20212;-88
2021/12/20 13:02:43;;;;;;;14.80;7.75;;;;;;;;;;5012125;28;20080;-89
2021/12/20 13:05:16;;;;;;;14.43;6.10;;;;;;;;;;4996644;28;20096;-89
2021/12/20 13:07:46;;;;;;;14.52;6.63;;;;;;;;;;5013469;28;20034;-88
2021/12/20 13:10:17;;;;;;;14.43;7.38;;;;;;;;;;5013041;28;20078;-89
2021/12/20 13:12:49;;;;;;;13.10;6.53;;;;;;;;;;4991310;28;20045;-89
2021/12/20 13:15:24;;;;;;;12.57;6.30;;;;;;;;;;4997695;28;20137;-89
2021/12/20 13:17:57;;;;;;;14.15;5.53;;;;;;;;;;5014684;28;20053;-89
2021/12/20 13:20:32;;;;;;;11.55;5.45;;;;;;;;;;5012207;28;20054;-89
2021/12/20 13:23:05;;;;;;;10.20;5.22;;;;;;;;;;4996354;28;20053;-89
2021/12/20 13:25:37;;;;;;;12.77;5.35;;;;;;;;;;5015631;28;20080;-89
2021/12/20 13:28:05;;;;;;;13.30;5.15;;;;;;;;;;5010096;28;20167;-89
2021/12/20 13:30:32;;;;;;;10.43;5.47;;;;;;;;;;4996903;28;20435;-90
2021/12/20 13:33:02;;;;;;;9.93;4.57;;;;;;;;;;5011763;28;20054;-89
2021/12/20 13:35:30;;;;;;;12.40;5.05;;;;;;;;;;4979461;28;20148;-90
2021/12/20 13:38:15;;;;;;;9.00;4.40;;;;;;;;;;5014278;28;20053;-90
2021/12/20 13:40:44;;;;;;;6.70;3.65;;;;;;;;;;5014957;28;20494;-90
2021/12/20 13:43:12;;;;;;;12.77;6.53;;;;;;;;;;4980496;28;20042;-89
2021/12/20 13:45:39;;;;;;;6.28;3.15;;;;;;;;;;4993576;28;20153;-89
2021/12/20 13:48:10;;;;;;;11.85;4.25;;;;;;;;;;4995663;28;20140;-89
2021/12/20 13:50:37;;;;;;;25.23;4.57;;;;;;;;;;5014379;28;20096;-89
2021/12/20 13:53:05;;;;;;;8.85;4.18;;;;;;;;;;4994837;28;20047;-89
2021/12/20 13:55:32;;;;;;;10.85;4.10;;;;;;;;;;5014075;28;20042;-89
2021/12/20 13:57:59;;;;;;;7.10;3.78;;;;;;;;;;5011220;28;20486;-89
2021/12/20 14:00:27;;;;;;;10.10;5.03;;;;;;;;;;4997113;28;20111;-89
2021/12/20 14:02:55;;;;;;;10.95;5.47;;;;;;;;;;4996630;28;20081;-89
2021/12/20 14:05:27;;;;;;;15.50;6.00;;;;;;;;;;4995391;28;20046;-89
2021/12/20 14:07:59;;;;;;;12.02;4.95;;;;;;;;;;4975182;28;20061;-89
2021/12/20 14:10:33;;;;;;;9.80;4.55;;;;;;;;;;5014113;28;20054;-89
2021/12/20 14:13:02;;;;;;;9.85;4.80;;;;;;;;;;4993907;28;20128;-90
2021/12/20 14:15:31;;;;;;;10.43;5.18;;;;;;;;;;4978598;28;20410;-90
2021/12/20 14:18:04;;;;;;;10.45;4.80;;;;;;;;;;5011824;28;20045;-90
2021/12/20 14:20:45;;;;;;;13.18;4.43;;;;;;;;;;4985897;28;20045;-90
2021/12/20 14:23:26;;;;;;;13.20;4.72;;;;;;;;;;5014823;28;20081;-90
2021/12/20 14:26:03;;;;;;;10.65;5.10;;;;;;;;;;5016988;28;20078;-90
2021/12/20 14:28:34;;;;;;;10.60;5.90;;;;;;;;;;4998502;28;20125;-91
2021/12/20 14:31:03;;;;;;;14.25;6.53;;;;;;;;;;5012413;28;20085;-90
2021/12/20 14:33:32;;;;;;;11.15;5.88;;;;;;;;;;5016618;28;20112;-90
2021/12/20 14:36:07;;;;;;;10.52;5.50;;;;;;;;;;5016565;28;20053;-90
2021/12/20 14:38:41;;;;;;;12.88;6.25;;;;;;;;;;4981343;28;20046;-90
2021/12/20 14:41:27;;;;;;;14.20;5.57;;;;;;;;;;5015517;28;20046;-90
2021/12/20 14:44:00;;;;;;;25.25;6.57;;;;;;;;;;5007965;28;20108;-90
2021/12/20 14:46:33;;;;;;;14.75;5.45;;;;;;;;;;5018117;28;20153;-90
2021/12/20 14:49:15;;;;;;;12.02;4.75;;;;;;;;;;5021727;28;20060;-90
2021/12/20 14:51:48;;;;;;;12.13;5.35;;;;;;;;;;5019551;28;20046;-90
2021/12/20 14:54:19;;;;;;;12.98;6.28;;;;;;;;;;4999525;28;20054;-90